Time;durP1;ratioP1;P1;durP2;ratioP2;P2;SDS_P1;SDS_P2;PMS_P1;PMS_P2;Temp;Humidity;BMP_temperature;BMP_pressure;BME280_temperature;BME280_humidity;BME280_pressure;Samples;Min_cycle;Max_cycle;Signal;HPM_P1;HPM_P2
2022/10/16 00:03:13;;;;;;;2.25;1.40;;;;;;;15.43;100.00;100175.00;8358683;28;20533;-49
2022/10/16 00:07:13;;;;;;;1.92;1.58;;;;;;;15.32;100.00;100161.78;8358976;28;20664;-49
2022/10/16 00:11:18;;;;;;;2.20;1.40;;;;;;;15.33;100.00;100168.03;8366541;28;20123;-49
2022/10/16 00:15:18;;;;;;;1.95;1.55;;;;;;;15.29;100.00;100170.31;8390716;28;20040;-49
2022/10/16 00:19:19;;;;;;;6.45;1.80;;;;;;;15.24;100.00;100174.56;8391190;28;20047;-49
2022/10/16 00:23:20;;;;;;;3.63;1.70;;;;;;;15.02;100.00;100172.66;8390782;28;20048;-50
2022/10/16 00:27:21;;;;;;;3.05;1.58;;;;;;;15.00;100.00;100169.25;8387673;28;20079;-49
2022/10/16 00:31:22;;;;;;;2.25;2.05;;;;;;;14.66;100.00;100158.69;8387672;28;20060;-50
2022/10/16 00:35:23;;;;;;;4.20;2.10;;;;;;;14.63;100.00;100142.69;8386031;28;20040;-49
2022/10/16 00:39:24;;;;;;;4.25;1.90;;;;;;;14.51;100.00;100149.53;8376174;28;20068;-49
2022/10/16 00:43:50;;;;;;;5.68;2.20;;;;;;;14.39;100.00;100150.94;8357077;28;20047;-50
2022/10/16 00:47:53;;;;;;;3.55;2.60;;;;;;;14.29;100.00;100153.00;8346201;28;20446;-51
2022/10/16 00:51:54;;;;;;;3.67;2.70;;;;;;;14.23;100.00;100155.53;8357339;28;20441;-49
2022/10/16 00:55:55;;;;;;;3.83;3.33;;;;;;;14.18;100.00;100153.31;8357934;28;20037;-50
2022/10/16 00:59:57;;;;;;;3.63;2.80;;;;;;;14.16;100.00;100170.84;8358010;28;20098;-49
2022/10/16 01:03:58;;;;;;;4.75;3.13;;;;;;;14.08;100.00;100155.38;8357953;28;20437;-52
2022/10/16 01:08:21;;;;;;;3.95;3.08;;;;;;;14.05;100.00;100157.56;8358018;28;20036;-50
2022/10/16 01:12:50;;;;;;;5.75;2.88;;;;;;;13.94;100.00;100172.41;8372060;28;20051;-49
2022/10/16 01:17:00;;;;;;;3.17;2.55;;;;;;;13.88;100.00;100179.34;8387794;28;20102;-53
2022/10/16 01:21:04;;;;;;;5.22;2.97;;;;;;;13.80;100.00;100175.78;8351683;28;20072;-50
2022/10/16 01:25:11;;;;;;;3.60;2.50;;;;;;;13.81;100.00;100163.88;8357716;28;20067;-51
2022/10/16 01:29:26;;;;;;;3.50;2.65;;;;;;;13.80;100.00;100159.47;8351500;28;20033;-49
2022/10/16 01:33:35;;;;;;;3.80;2.25;;;;;;;13.90;100.00;100176.44;8358085;28;20410;-51
2022/10/16 01:37:53;;;;;;;2.85;2.30;;;;;;;13.83;100.00;100176.31;8357615;28;20029;-49
2022/10/16 01:42:01;;;;;;;5.10;2.25;;;;;;;13.83;100.00;100191.75;8354441;28;20045;-49
2022/10/16 01:46:02;;;;;;;3.10;1.90;;;;;;;13.92;100.00;100185.28;8357274;28;20033;-49
2022/10/16 01:50:05;;;;;;;6.03;2.33;;;;;;;14.02;100.00;100191.41;8357543;28;20059;-49
2022/10/16 01:54:09;;;;;;;4.20;1.52;;;;;;;14.10;100.00;100196.84;8358097;28;20040;-50
2022/10/16 01:58:12;;;;;;;2.85;1.80;;;;;;;14.24;100.00;100188.00;8355686;28;20037;-49
2022/10/16 02:02:15;;;;;;;1.90;1.70;;;;;;;14.24;100.00;100190.72;8357454;28;20045;-50
2022/10/16 02:06:15;;;;;;;2.33;1.42;;;;;;;14.34;100.00;100191.41;8370652;28;20044;-49
2022/10/16 02:10:17;;;;;;;3.55;1.33;;;;;;;14.45;100.00;100196.47;8371698;28;20061;-49
2022/10/16 02:14:18;;;;;;;1.35;1.25;;;;;;;14.42;100.00;100194.09;8362668;28;20037;-51
2022/10/16 02:18:19;;;;;;;2.65;1.35;;;;;;;14.38;100.00;100190.03;8362500;28;20040;-49
2022/10/16 02:22:32;;;;;;;2.92;1.35;;;;;;;14.41;100.00;100197.84;8363169;28;20052;-50
2022/10/16 02:26:43;;;;;;;3.25;1.40;;;;;;;14.45;100.00;100199.19;8362513;28;20506;-53
2022/10/16 02:30:50;;;;;;;4.82;1.30;;;;;;;14.46;100.00;100211.78;8361471;28;20091;-49
2022/10/16 02:34:52;;;;;;;1.55;1.25;;;;;;;14.48;100.00;100209.72;8349414;28;20508;-49
2022/10/16 02:38:53;;;;;;;5.82;1.38;;;;;;;14.41;100.00;100203.28;8360874;28;20044;-49
2022/10/16 02:42:55;;;;;;;3.42;1.60;;;;;;;14.43;100.00;100206.69;8361956;28;20045;-49
2022/10/16 02:46:56;;;;;;;1.60;1.13;;;;;;;14.45;100.00;100210.06;8361688;28;20043;-50
2022/10/16 02:50:57;;;;;;;3.58;1.05;;;;;;;14.45;100.00;100215.50;8362554;28;20033;-50
2022/10/16 02:54:57;;;;;;;1.52;1.02;;;;;;;14.48;100.00;100208.88;8361768;28;20128;-52
2022/10/16 02:58:58;;;;;;;2.65;1.25;;;;;;;14.47;100.00;100221.66;8361737;28;20509;-54
2022/10/16 03:02:59;;;;;;;2.38;1.30;;;;;;;14.40;100.00;100198.03;8361677;28;20324;-52
2022/10/16 03:07:00;;;;;;;0.95;0.88;;;;;;;14.40;100.00;100182.56;8361068;28;20045;-51
2022/10/16 03:11:00;;;;;;;1.88;0.80;;;;;;;14.40;100.00;100189.88;8365059;28;20036;-51
2022/10/16 03:15:03;;;;;;;2.88;0.70;;;;;;;14.45;100.00;100182.88;8392680;28;20036;-54
2022/10/16 03:19:04;;;;;;;1.42;0.80;;;;;;;14.46;100.00;100192.75;8393012;28;20036;-52
2022/10/16 03:23:06;;;;;;;1.25;0.70;;;;;;;14.51;100.00;100203.94;8393008;28;20044;-51
2022/10/16 03:27:07;;;;;;;2.63;0.85;;;;;;;14.60;100.00;100186.59;8391808;28;20067;-50
2022/10/16 03:31:08;;;;;;;2.88;0.80;;;;;;;14.59;100.00;100189.47;8387824;28;20032;-53
2022/10/16 03:35:08;;;;;;;1.15;0.60;;;;;;;14.65;100.00;100184.19;8392528;28;20068;-51
2022/10/16 03:39:09;;;;;;;2.15;0.60;;;;;;;14.61;100.00;100187.44;8380444;28;20396;-54
2022/10/16 03:43:10;;;;;;;1.70;0.60;;;;;;;14.65;100.00;100205.97;8360490;28;20429;-52
2022/10/16 03:47:10;;;;;;;1.50;1.23;;;;;;;14.64;100.00;100204.25;8359967;28;20551;-50
2022/10/16 03:51:11;;;;;;;0.73;0.60;;;;;;;14.63;100.00;100228.91;8360407;28;20166;-50
2022/10/16 03:55:12;;;;;;;1.23;0.80;;;;;;;14.64;100.00;100231.47;8359125;28;20522;-50
2022/10/16 03:59:12;;;;;;;2.70;0.88;;;;;;;14.62;100.00;100227.22;8359265;28;20044;-50
2022/10/16 04:03:13;;;;;;;0.85;0.60;;;;;;;14.55;100.00;100221.59;8359639;28;20033;-51
2022/10/16 04:07:14;;;;;;;0.90;0.80;;;;;;;14.61;100.00;100215.47;8359548;28;20148;-53
2022/10/16 04:11:15;;;;;;;1.25;0.60;;;;;;;14.64;100.00;100227.91;8363725;28;20536;-51
2022/10/16 04:15:16;;;;;;;0.50;0.50;;;;;;;14.67;100.00;100239.28;8390487;28;20123;-54
2022/10/16 04:19:16;;;;;;;2.00;0.70;;;;;;;14.60;100.00;100230.13;8390393;28;20455;-50
2022/10/16 04:23:17;;;;;;;5.57;1.02;;;;;;;14.50;100.00;100226.75;8390985;28;20059;-50
2022/10/16 04:27:18;;;;;;;3.83;0.70;;;;;;;14.51;100.00;100236.59;8388409;28;20038;-50
2022/10/16 04:31:18;;;;;;;3.08;0.88;;;;;;;14.57;100.00;100230.47;8375004;28;20071;-53
2022/10/16 04:35:20;;;;;;;1.95;1.10;;;;;;;14.52;100.00;100227.41;8351694;28;20562;-50
2022/10/16 04:39:21;;;;;;;2.70;0.90;;;;;;;14.50;100.00;100239.47;8354485;28;20048;-50
2022/10/16 04:43:22;;;;;;;0.95;0.77;;;;;;;14.43;100.00;100239.34;8358715;28;20102;-51
2022/10/16 04:47:23;;;;;;;1.85;1.10;;;;;;;14.42;100.00;100264.00;8389925;28;20532;-50
2022/10/16 04:51:23;;;;;;;2.70;0.60;;;;;;;14.44;100.00;100268.22;8366468;28;20371;-50
2022/10/16 04:55:24;;;;;;;2.90;0.90;;;;;;;14.36;100.00;100265.50;8357797;28;20033;-51
2022/10/16 04:59:25;;;;;;;1.15;0.68;;;;;;;14.29;100.00;100263.63;8358013;28;20052;-50
2022/10/16 05:03:26;;;;;;;0.68;0.65;;;;;;;14.29;100.00;100280.81;8357964;28;20116;-53
2022/10/16 05:07:26;;;;;;;1.67;0.90;;;;;;;14.25;100.00;100279.47;8358016;28;20091;-50
2022/10/16 05:11:27;;;;;;;3.22;0.88;;;;;;;14.18;100.00;100285.72;8362456;28;20081;-53
2022/10/16 05:15:28;;;;;;;1.30;0.70;;;;;;;14.10;100.00;100281.13;8389366;28;20040;-54
2022/10/16 05:19:29;;;;;;;3.42;1.00;;;;;;;13.94;100.00;100281.09;8358783;28;20037;-53
2022/10/16 05:23:29;;;;;;;2.25;0.93;;;;;;;13.96;100.00;100289.91;8358273;28;20045;-51
2022/10/16 05:27:30;;;;;;;1.48;1.00;;;;;;;14.03;100.00;100285.50;8355762;28;20460;-51
2022/10/16 05:31:31;;;;;;;5.10;1.30;;;;;;;14.05;100.00;100316.09;8358636;28;20116;-51
2022/10/16 05:35:31;;;;;;;1.67;0.95;;;;;;;14.02;100.00;100305.56;8355894;28;20041;-51
2022/10/16 05:39:32;;;;;;;1.05;0.80;;;;;;;13.97;100.00;100294.38;8357178;28;20148;-52
2022/10/16 05:43:33;;;;;;;1.50;1.00;;;;;;;13.99;100.00;100299.63;8358370;28;20529;-54
2022/10/16 05:47:33;;;;;;;1.95;1.10;;;;;;;13.66;100.00;100314.97;8358217;28;20043;-50
2022/10/16 05:51:34;;;;;;;3.58;1.42;;;;;;;13.46;100.00;100319.00;8359320;28;20094;-53
2022/10/16 05:55:35;;;;;;;3.42;1.30;;;;;;;13.45;100.00;100329.00;8362977;28;20033;-51
2022/10/16 05:59:36;;;;;;;8.13;1.08;;;;;;;13.36;100.00;100340.00;8363318;28;20037;-54
2022/10/16 06:03:37;;;;;;;2.88;1.15;;;;;;;13.19;100.00;100354.50;8364888;28;20499;-51
2022/10/16 06:07:38;;;;;;;4.63;1.00;;;;;;;13.21;100.00;100364.19;8360585;28;20414;-50
2022/10/16 06:11:38;;;;;;;1.50;1.40;;;;;;;13.24;100.00;100360.31;8366812;28;20044;-50
2022/10/16 06:15:41;;;;;;;3.25;1.33;;;;;;;13.27;100.00;100362.72;8366580;28;20040;-52
2022/10/16 06:19:42;;;;;;;3.95;1.50;;;;;;;13.28;100.00;100358.97;8360996;28;20032;-50
2022/10/16 06:23:43;;;;;;;2.22;1.67;;;;;;;13.35;100.00;100370.88;8361856;28;20041;-50
2022/10/16 06:27:44;;;;;;;3.03;2.20;;;;;;;13.47;100.00;100378.59;8348368;28;20036;-51
2022/10/16 06:31:44;;;;;;;4.40;1.90;;;;;;;13.68;100.00;100394.47;8356590;28;20043;-52
2022/10/16 06:35:45;;;;;;;2.47;1.50;;;;;;;13.81;100.00;100395.72;8358660;28;20044;-50
2022/10/16 06:39:46;;;;;;;2.25;1.70;;;;;;;13.91;100.00;100403.75;8361812;28;20043;-52
2022/10/16 06:43:47;;;;;;;2.60;1.60;;;;;;;13.98;100.00;100402.06;8361705;28;20040;-50
2022/10/16 06:47:48;;;;;;;2.38;1.90;;;;;;;14.08;100.00;100413.63;8356025;28;20128;-50
2022/10/16 06:51:49;;;;;;;3.30;2.13;;;;;;;14.17;100.00;100412.63;8353410;28;20041;-50
2022/10/16 06:55:50;;;;;;;2.40;2.10;;;;;;;14.25;100.00;100410.00;8355874;28;20416;-50
2022/10/16 06:59:51;;;;;;;2.13;1.92;;;;;;;14.44;100.00;100436.00;8359863;28;20041;-50
2022/10/16 07:03:53;;;;;;;3.83;2.10;;;;;;;14.63;100.00;100430.25;8345136;28;20040;-51
2022/10/16 07:07:53;;;;;;;3.63;1.80;;;;;;;14.70;100.00;100443.03;8353759;28;20132;-50
2022/10/16 07:11:54;;;;;;;3.55;2.15;;;;;;;14.92;100.00;100439.66;8348394;28;20025;-52
2022/10/16 07:15:56;;;;;;;2.53;1.50;;;;;;;14.97;100.00;100461.75;8343239;28;20053;-50
2022/10/16 07:19:57;;;;;;;5.05;1.90;;;;;;;15.08;100.00;100458.69;8353828;28;20036;-51
2022/10/16 07:24:00;;;;;;;3.80;1.75;;;;;;;15.24;100.00;100469.56;8349221;28;20044;-50
2022/10/16 07:28:01;;;;;;;2.50;1.80;;;;;;;15.25;100.00;100470.44;8353351;28;20094;-50
2022/10/16 07:32:02;;;;;;;1.77;1.58;;;;;;;15.26;100.00;100478.44;8368970;28;20094;-50
2022/10/16 07:36:03;;;;;;;1.70;1.60;;;;;;;15.29;100.00;100478.09;8349889;28;20192;-51
2022/10/16 07:40:05;;;;;;;4.15;1.90;;;;;;;15.43;100.00;100492.91;8345897;28;20396;-51
2022/10/16 07:44:06;;;;;;;3.08;2.17;;;;;;;15.50;100.00;100499.38;8339809;28;20057;-50
2022/10/16 07:48:06;;;;;;;2.30;1.92;;;;;;;15.67;100.00;100499.19;8343736;28;20095;-50
2022/10/16 07:52:07;;;;;;;3.45;1.80;;;;;;;15.99;100.00;100503.69;8355386;28;20044;-51
2022/10/16 07:56:08;;;;;;;1.95;1.70;;;;;;;16.18;100.00;100502.41;8351483;28;20056;-51
2022/10/16 08:00:13;;;;;;;2.40;1.02;;;;;;;16.54;100.00;100509.97;8347274;28;20395;-51
2022/10/16 08:04:14;;;;;;;1.13;1.00;;;;;;;16.73;100.00;100514.09;8349093;28;20033;-51
2022/10/16 08:08:16;;;;;;;3.85;0.90;;;;;;;17.07;100.00;100522.75;8346147;28;20036;-54
2022/10/16 08:12:17;;;;;;;2.95;1.30;;;;;;;17.37;100.00;100524.56;8342820;28;20045;-51
2022/10/16 08:16:18;;;;;;;3.60;0.95;;;;;;;17.73;99.30;100536.56;8347672;28;20086;-52
2022/10/16 08:20:19;;;;;;;0.90;0.68;;;;;;;18.05;95.57;100541.69;8349896;28;20048;-51
2022/10/16 08:24:21;;;;;;;0.82;0.63;;;;;;;18.37;94.28;100541.34;8348305;28;20041;-52
2022/10/16 08:28:23;;;;;;;3.15;0.70;;;;;;;18.38;93.46;100548.50;8349456;28;20179;-52
2022/10/16 08:32:23;;;;;;;0.98;0.80;;;;;;;18.55;91.64;100555.50;8352628;28;20155;-55
2022/10/16 08:36:24;;;;;;;1.52;0.73;;;;;;;18.47;93.88;100557.47;8352580;28;20037;-54
2022/10/16 08:40:30;;;;;;;2.65;0.60;;;;;;;18.87;90.94;100566.00;8349149;28;20033;-54
2022/10/16 08:49:14;;;;;;;1.73;0.47;;;;;;;19.33;86.83;100578.34;8439917;27;20364;-54
2022/10/16 08:53:16;;;;;;;;;;;;;;;20.12;80.86;100579.91;8409648;28;20036;-52
2022/10/16 08:57:21;;;;;;;2.63;0.50;;;;;;;22.07;75.26;100578.88;8411500;28;20627;-51
2022/10/16 09:01:23;;;;;;;3.55;0.60;;;;;;;23.46;68.50;100587.34;8411357;28;20050;-53
2022/10/16 09:05:54;;;;;;;0.57;0.22;;;;;;;24.52;63.83;100589.84;8407386;28;20059;-55
2022/10/16 09:10:31;;;;;;;0.47;0.20;;;;;;;24.98;62.54;100579.09;8397399;28;20750;-53
2022/10/16 09:14:47;;;;;;;0.55;0.30;;;;;;;25.30;61.05;100576.94;8403654;28;20047;-52
2022/10/16 09:19:04;;;;;;;1.33;0.40;;;;;;;25.30;61.09;100588.88;8411295;28;20642;-54
2022/10/16 09:27:16;;;;;;;1.08;0.47;;;;;;;27.29;55.63;100585.75;8443079;27;20148;-52
2022/10/16 09:31:20;;;;;;;1.70;0.30;;;;;;;26.66;56.62;100596.88;8431933;28;20042;-54
2022/10/16 09:35:27;;;;;;;0.97;0.30;;;;;;;27.07;55.90;100593.03;8440875;28;20497;-54
2022/10/16 09:39:27;;;;;;;0.93;0.30;;;;;;;27.58;54.94;100589.38;8436968;28;20108;-55
2022/10/16 09:43:40;;;;;;;2.28;0.30;;;;;;;27.48;54.29;100586.41;8438403;28;20045;-55
2022/10/16 09:47:43;;;;;;;2.47;0.30;;;;;;;27.96;54.17;100595.94;8431144;28;20400;-55
2022/10/16 09:51:43;;;;;;;2.67;0.28;;;;;;;27.89;52.34;100602.75;8438702;28;20401;-56
2022/10/16 09:55:49;;;;;;;1.35;0.30;;;;;;;28.56;50.99;100604.44;8438664;28;20213;-54
2022/10/16 09:59:53;;;;;;;1.02;0.30;;;;;;;27.44;53.27;100583.28;8441158;27;20042;-56
2022/10/16 10:04:00;;;;;;;0.95;0.30;;;;;;;27.12;53.97;100595.09;8442577;28;20043;-55
2022/10/16 10:08:05;;;;;;;0.73;0.20;;;;;;;27.81;51.60;100586.47;8439882;28;20059;-55
2022/10/16 10:12:18;;;;;;;3.13;0.25;;;;;;;29.46;47.74;100576.97;8442400;28;20532;-53
2022/10/16 10:16:24;;;;;;;1.60;0.30;;;;;;;30.72;46.54;100564.91;8436934;28;20434;-53
2022/10/16 10:20:32;;;;;;;0.57;0.10;;;;;;;28.25;48.83;100574.44;8438361;28;20494;-54
2022/10/16 10:24:33;;;;;;;2.30;0.20;;;;;;;24.97;54.34;100578.25;8443586;28;20404;-53
2022/10/16 10:29:02;;;;;;;1.30;0.30;;;;;;;23.45;58.56;100591.16;8435815;27;20376;-55
2022/10/16 10:33:29;;;;;;;0.55;0.20;;;;;;;22.83;59.75;100595.47;8428419;28;20065;-55
2022/10/16 10:37:49;;;;;;;0.45;0.10;;;;;;;24.25;57.26;100602.25;8425033;28;20044;-53
2022/10/16 10:42:19;;;;;;;2.78;0.20;;;;;;;24.61;55.89;100588.47;8412112;28;20036;-51
2022/10/16 10:46:49;;;;;;;1.08;0.10;;;;;;;24.90;56.26;100593.25;8414732;28;20047;-54
2022/10/16 10:51:01;;;;;;;1.00;0.30;;;;;;;24.42;57.81;100586.75;8412485;28;20089;-55
2022/10/16 10:55:39;;;;;;;1.23;0.30;;;;;;;23.80;59.51;100595.16;8404765;28;20285;-53
2022/10/16 11:00:10;;;;;;;3.35;0.52;;;;;;;23.06;60.03;100587.50;8416827;28;20339;-52
2022/10/16 11:08:43;;;;;;;0.40;0.30;;;;;;;22.64;64.07;100593.66;8434017;27;20374;-55
2022/10/16 11:12:52;;;;;;;0.73;0.20;;;;;;;23.72;59.78;100604.56;8427316;28;20062;-54
2022/10/16 11:17:19;;;;;;;0.98;0.20;;;;;;;26.93;54.01;100593.56;8412498;28;20561;-53
2022/10/16 11:21:22;;;;;;;0.93;0.32;;;;;;;29.15;50.54;100600.81;8441106;28;20243;-54
2022/10/16 11:25:28;;;;;;;1.38;0.20;;;;;;;30.21;48.15;100603.66;8419744;27;20040;-55
2022/10/16 11:29:31;;;;;;;0.43;0.10;;;;;;;30.38;45.86;100615.50;8430870;27;20039;-54
2022/10/16 11:33:41;;;;;;;1.50;0.30;;;;;;;30.41;46.23;100626.13;8437631;28;20137;-54
2022/10/16 11:37:46;;;;;;;0.25;0.10;;;;;;;30.70;46.15;100609.03;8437439;28;20172;-51
2022/10/16 11:41:55;;;;;;;1.35;0.30;;;;;;;29.80;45.85;100612.75;8437033;27;20031;-53
2022/10/16 11:46:01;;;;;;;0.50;0.30;;;;;;;30.66;45.25;100622.69;8406219;27;20133;-51
2022/10/16 11:50:17;;;;;;;4.07;0.47;;;;;;;30.69;45.41;100621.31;8405691;28;20147;-52
2022/10/16 11:54:28;;;;;;;1.95;0.15;;;;;;;29.79;45.00;100611.06;8405654;28;20330;-55
2022/10/16 11:58:36;;;;;;;0.52;0.20;;;;;;;30.66;44.56;100610.66;8408321;28;20127;-54
2022/10/16 12:03:04;;;;;;;0.95;0.15;;;;;;;27.92;48.60;100621.72;8434767;27;20032;-53
2022/10/16 12:07:09;;;;;;;3.17;0.30;;;;;;;26.03;52.18;100619.97;8443628;28;20082;-55
2022/10/16 12:15:34;;;;;;;0.98;0.25;;;;;;;24.88;56.43;100612.84;8452020;27;20112;-53
2022/10/16 12:19:35;;;;;;;0.90;0.20;;;;;;;24.05;55.96;100621.75;8422640;28;20036;-53
2022/10/16 12:23:39;;;;;;;0.57;0.30;;;;;;;23.50;60.17;100607.88;8411443;28;20037;-54
2022/10/16 12:27:39;;;;;;;1.70;0.33;;;;;;;23.80;57.54;100611.72;8413043;28;20482;-50
2022/10/16 12:31:46;;;;;;;3.05;0.30;;;;;;;24.29;57.05;100606.22;8411390;28;20044;-53
2022/10/16 12:35:47;;;;;;;1.23;0.30;;;;;;;24.85;54.73;100598.63;8409843;28;20048;-51
2022/10/16 12:39:49;;;;;;;0.63;0.30;;;;;;;25.20;54.83;100594.13;8401353;28;20131;-51
2022/10/16 12:43:50;;;;;;;0.98;0.20;;;;;;;24.77;54.89;100604.47;8405503;28;20090;-51
2022/10/16 12:47:53;;;;;;;2.15;0.30;;;;;;;23.71;57.76;100607.53;8408551;28;20040;-53
2022/10/16 12:51:55;;;;;;;0.90;0.15;;;;;;;22.55;59.70;100605.09;8410479;28;20268;-50
2022/10/16 12:56:22;;;;;;;1.33;0.22;;;;;;;22.46;60.06;100601.72;8407706;28;20044;-53
2022/10/16 13:00:45;;;;;;;1.85;0.20;;;;;;;21.95;62.63;100603.47;8432283;28;20036;-51
2022/10/16 13:14:09;;;;;;;5.05;0.43;;;;;;;21.49;63.55;100591.53;8429651;27;20123;-52
2022/10/16 13:18:34;;;;;;;1.73;0.20;;;;;;;21.71;64.90;100598.53;8366431;27;20256;-54
2022/10/16 13:23:03;;;;;;;0.40;0.30;;;;;;;22.38;63.01;100596.41;8388054;27;20044;-53
2022/10/16 13:27:25;;;;;;;0.90;0.22;;;;;;;22.34;62.07;100608.94;8394702;27;20036;-54
2022/10/16 13:32:00;;;;;;;1.27;0.20;;;;;;;22.12;62.78;100603.88;8397408;27;20568;-55
2022/10/16 13:36:01;;;;;;;2.45;0.22;;;;;;;21.58;63.64;100612.28;8364747;28;20052;-55
2022/10/16 13:40:18;;;;;;;1.67;0.68;;;;;;;21.41;63.75;100600.00;8381480;27;20044;-53
2022/10/16 13:44:20;;;;;;;0.50;0.30;;;;;;;21.47;64.34;100599.13;8404682;27;20040;-54
2022/10/16 13:48:21;;;;;;;1.42;0.25;;;;;;;21.41;64.97;100600.00;8411145;27;20101;-52
2022/10/16 13:52:22;;;;;;;2.13;0.30;;;;;;;21.46;66.63;100602.94;8410552;27;20497;-53
2022/10/16 13:56:27;;;;;;;2.85;0.40;;;;;;;21.37;64.93;100601.44;8409893;27;20462;-54
2022/10/16 14:00:30;;;;;;;1.15;0.38;;;;;;;21.35;65.29;100600.84;8391642;28;20041;-54
2022/10/16 14:04:33;;;;;;;1.73;0.45;;;;;;;21.43;66.28;100608.88;8382354;27;20459;-54
2022/10/16 14:08:34;;;;;;;2.95;0.30;;;;;;;21.54;65.58;100605.53;8385343;27;20036;-55
2022/10/16 14:12:35;;;;;;;0.95;0.30;;;;;;;21.38;66.29;100597.66;8392372;28;20049;-53
2022/10/16 14:16:36;;;;;;;1.55;0.20;;;;;;;21.36;66.96;100591.50;8377985;27;20510;-50
2022/10/16 14:20:36;;;;;;;0.60;0.20;;;;;;;21.29;68.67;100590.66;8378104;28;20506;-51
2022/10/16 14:24:37;;;;;;;1.50;0.30;;;;;;;21.39;67.12;100596.59;8356039;28;20041;-51
2022/10/16 14:28:40;;;;;;;2.45;0.32;;;;;;;21.38;68.50;100594.91;8362868;28;20033;-54
2022/10/16 14:32:52;;;;;;;3.75;0.50;;;;;;;21.39;68.29;100591.09;8366771;28;20579;-52
2022/10/16 14:36:54;;;;;;;1.20;0.35;;;;;;;21.56;67.77;100595.13;8357368;28;20044;-53
2022/10/16 14:40:58;;;;;;;0.77;0.28;;;;;;;21.60;67.96;100593.69;8382876;28;20071;-54
2022/10/16 14:44:59;;;;;;;1.15;0.32;;;;;;;21.78;68.26;100607.69;8380394;28;20043;-51
2022/10/16 14:49:13;;;;;;;1.35;0.40;;;;;;;21.84;68.98;100606.84;8362448;28;20053;-54
2022/10/16 14:53:14;;;;;;;0.25;0.10;;;;;;;21.79;70.18;100595.63;8372697;28;20494;-55
2022/10/16 14:57:20;;;;;;;1.90;0.20;;;;;;;21.84;70.22;100590.34;8374877;28;20052;-55
2022/10/16 15:01:20;;;;;;;0.65;0.22;;;;;;;21.81;70.34;100612.78;8359575;28;20089;-52
2022/10/16 15:05:25;;;;;;;0.50;0.10;;;;;;;21.76;70.79;100609.81;8353466;28;20522;-52
2022/10/16 15:09:26;;;;;;;0.50;0.10;;;;;;;21.74;71.90;100608.34;8358022;28;20033;-53
2022/10/16 15:13:27;;;;;;;0.43;0.20;;;;;;;21.68;71.24;100607.22;8382889;28;20064;-54
2022/10/16 15:17:28;;;;;;;1.40;0.30;;;;;;;21.46;72.63;100608.44;8379320;28;20094;-55
2022/10/16 15:21:31;;;;;;;0.88;0.38;;;;;;;21.43;73.23;100608.03;8380668;28;20072;-52
2022/10/16 15:25:53;;;;;;;3.80;0.30;;;;;;;21.28;73.85;100610.94;8381716;28;20067;-52
2022/10/16 15:29:54;;;;;;;0.40;0.22;;;;;;;21.13;74.65;100599.25;8357937;28;20534;-52
2022/10/16 15:34:01;;;;;;;0.70;0.13;;;;;;;21.06;74.87;100602.00;8350052;28;20383;-55
2022/10/16 15:38:01;;;;;;;0.55;0.20;;;;;;;21.00;74.83;100599.22;8331644;28;20187;-55
2022/10/16 15:42:02;;;;;;;1.98;0.45;;;;;;;21.01;75.45;100595.41;8330275;28;20033;-52
2022/10/16 15:46:06;;;;;;;6.60;0.55;;;;;;;20.89;76.03;100591.56;8340958;28;20040;-52
2022/10/16 15:50:07;;;;;;;3.40;0.30;;;;;;;20.82;76.69;100587.91;8348887;28;20048;-51
2022/10/16 15:54:08;;;;;;;6.90;3.00;;;;;;;20.69;77.98;100587.84;8361637;28;20040;-54
2022/10/16 15:58:09;;;;;;;4.75;3.47;;;;;;;20.64;78.85;100584.84;8367753;28;20062;-54
2022/10/16 16:02:10;;;;;;;2.58;2.03;;;;;;;20.52;79.45;100587.34;8363519;28;20123;-55
2022/10/16 16:06:12;;;;;;;1.10;0.60;;;;;;;20.43;79.70;100582.22;8377083;28;20387;-52
2022/10/16 16:10:13;;;;;;;1.00;0.60;;;;;;;20.40;79.84;100577.97;8374607;28;20033;-55
2022/10/16 16:14:13;;;;;;;0.98;0.70;;;;;;;20.32;80.31;100580.03;8369299;28;20082;-53
2022/10/16 16:18:14;;;;;;;0.80;0.80;;;;;;;20.27;81.55;100596.25;8369303;28;20045;-52
2022/10/16 16:22:15;;;;;;;1.05;0.95;;;;;;;20.13;82.73;100581.59;8366727;28;20039;-53
2022/10/16 16:26:25;;;;;;;9.57;5.13;;;;;;;20.05;83.64;100592.72;8365194;28;20029;-52
2022/10/16 16:30:26;;;;;;;1.90;1.25;;;;;;;19.96;84.77;100590.31;8367188;28;20082;-54
2022/10/16 16:34:28;;;;;;;1.83;0.73;;;;;;;19.82;86.00;100602.22;8374431;28;20044;-53
2022/10/16 16:38:29;;;;;;;2.30;0.55;;;;;;;19.75;86.89;100609.53;8375318;28;20474;-54
2022/10/16 16:42:30;;;;;;;1.45;1.15;;;;;;;19.65;87.94;100609.03;8369558;28;20048;-51
2022/10/16 16:46:32;;;;;;;3.00;0.50;;;;;;;19.59;88.74;100607.06;8374135;28;20093;-54
2022/10/16 16:50:37;;;;;;;0.55;0.30;;;;;;;19.49;89.37;100610.16;8374657;28;20036;-54
2022/10/16 16:54:37;;;;;;;;;;;;;;;19.46;89.50;100599.59;8371423;28;20516;-52
2022/10/16 16:58:38;;;;;;;0.73;0.47;;;;;;;19.40;90.48;100606.66;8377316;28;20263;-54
2022/10/16 17:02:42;;;;;;;2.22;0.75;;;;;;;19.39;90.37;100637.88;8370646;28;20037;-55
2022/10/16 17:06:43;;;;;;;0.85;0.50;;;;;;;19.38;90.61;100630.72;8372933;28;20064;-55
2022/10/16 17:10:44;;;;;;;1.40;0.57;;;;;;;19.30;91.34;100630.81;8378666;28;20047;-55
2022/10/16 17:14:45;;;;;;;1.30;0.98;;;;;;;19.26;92.04;100626.78;8365743;28;20509;-53
2022/10/16 17:18:45;;;;;;;0.93;0.63;;;;;;;19.25;92.61;100636.00;8355125;28;20391;-55
2022/10/16 17:22:46;;;;;;;0.98;0.55;;;;;;;19.18;92.69;100624.13;8372001;28;20040;-55
2022/10/16 17:26:47;;;;;;;3.03;0.50;;;;;;;19.20;92.74;100633.00;8382050;28;20038;-54
2022/10/16 17:30:48;;;;;;;0.93;0.55;;;;;;;19.18;93.19;100618.63;8361508;28;20138;-52
2022/10/16 17:34:49;;;;;;;1.17;0.57;;;;;;;19.30;91.85;100628.09;8349759;28;20044;-55
2022/10/16 17:38:49;;;;;;;0.50;0.40;;;;;;;19.33;91.42;100633.19;8359723;28;20067;-53
2022/10/16 17:42:50;;;;;;;1.23;0.63;;;;;;;19.38;91.12;100651.78;8382184;28;20383;-52
2022/10/16 17:46:52;;;;;;;1.30;0.70;;;;;;;19.31;91.63;100651.72;8380097;28;20492;-54
2022/10/16 17:50:53;;;;;;;2.72;0.70;;;;;;;19.25;92.00;100646.97;8380994;28;20060;-55
2022/10/16 17:54:55;;;;;;;1.17;0.52;;;;;;;19.26;91.86;100637.75;8356763;28;20187;-56
2022/10/16 17:58:59;;;;;;;1.30;0.63;;;;;;;19.15;92.76;100649.16;8374062;28;20039;-52
2022/10/16 18:03:00;;;;;;;2.28;0.90;;;;;;;19.02;93.95;100654.50;8376358;28;20041;-52
2022/10/16 18:07:01;;;;;;;1.55;0.95;;;;;;;19.04;93.92;100649.69;8360078;28;20383;-56
2022/10/16 18:11:03;;;;;;;1.55;1.23;;;;;;;19.02;94.21;100656.38;8372202;28;20047;-53
2022/10/16 18:15:04;;;;;;;1.40;1.08;;;;;;;18.93;94.68;100644.69;8360604;28;20041;-53
2022/10/16 18:19:04;;;;;;;2.38;0.95;;;;;;;18.88;95.71;100652.63;8368723;28;20133;-54
2022/10/16 18:23:05;;;;;;;2.22;0.88;;;;;;;18.92;96.08;100661.31;8351124;28;20379;-55
2022/10/16 18:27:06;;;;;;;1.23;0.90;;;;;;;18.87;97.02;100661.03;8376964;28;20113;-56
2022/10/16 18:31:10;;;;;;;1.33;0.90;;;;;;;18.82;98.02;100658.84;8366346;28;20076;-53
2022/10/16 18:35:11;;;;;;;4.70;1.60;;;;;;;18.83;98.74;100665.19;8363575;28;20380;-55
2022/10/16 18:39:12;;;;;;;1.58;1.02;;;;;;;18.77;99.11;100669.56;8376553;28;20032;-54
2022/10/16 18:43:13;;;;;;;3.65;1.20;;;;;;;18.87;99.06;100670.09;8386296;28;20033;-56
2022/10/16 18:47:14;;;;;;;2.17;1.27;;;;;;;18.83;99.42;100678.91;8386605;28;20545;-54
2022/10/16 18:51:33;;;;;;;2.90;1.23;;;;;;;18.83;99.76;100685.22;8370095;28;20410;-55
2022/10/16 18:55:33;;;;;;;1.55;1.45;;;;;;;18.85;99.52;100683.13;8356020;28;20704;-53
2022/10/16 18:59:34;;;;;;;2.20;2.00;;;;;;;18.78;100.00;100687.69;8365801;28;20036;-56
2022/10/16 19:03:34;;;;;;;2.45;1.65;;;;;;;18.71;100.00;100694.97;8361226;28;20043;-56
2022/10/16 19:07:35;;;;;;;2.67;1.20;;;;;;;18.69;100.00;100690.69;8376378;28;20085;-55
2022/10/16 19:11:36;;;;;;;4.18;1.20;;;;;;;18.61;100.00;100697.13;8383814;28;20055;-53
2022/10/16 19:15:41;;;;;;;4.57;1.40;;;;;;;18.62;100.00;100692.50;8355158;28;20156;-57
2022/10/16 19:19:42;;;;;;;3.53;1.35;;;;;;;18.65;100.00;100698.44;8367912;28;20406;-54